createdAt,value
2017-12-31T00:01:13.513Z,99136.19
2017-12-31T00:03:41.140Z,99126.45
2017-12-31T00:06:08.918Z,99123.95
2017-12-31T00:08:36.524Z,99139.28
2017-12-31T00:11:04.905Z,99144.02
2017-12-31T00:13:32.469Z,99140.41
2017-12-31T00:16:00.550Z,99141.89
2017-12-31T00:18:28.035Z,99149.86
2017-12-31T00:20:56.935Z,99152.91
2017-12-31T00:23:24.731Z,99147.59
2017-12-31T00:25:52.618Z,99145.41
2017-12-31T00:28:20.114Z,99147.50
2017-12-31T00:30:47.752Z,99149.41
2017-12-31T00:33:15.651Z,99159.22
2017-12-31T00:35:43.520Z,99160.33
2017-12-31T00:38:11.246Z,99147.37
2017-12-31T00:40:38.746Z,99142.23
2017-12-31T00:43:06.232Z,99146.27
2017-12-31T00:45:33.733Z,99140.33
2017-12-31T00:48:02.139Z,99145.53
2017-12-31T00:50:29.679Z,99147.98
2017-12-31T00:52:57.954Z,99145.29
2017-12-31T00:55:25.782Z,99142.24
2017-12-31T00:57:53.551Z,99141.56
2017-12-31T01:00:21.259Z,99143.84
2017-12-31T01:02:49.244Z,99139.27
2017-12-31T01:05:16.734Z,99139.53
2017-12-31T01:07:44.239Z,99142.14
2017-12-31T01:10:12.571Z,99133.13
2017-12-31T01:12:40.108Z,99132.79
2017-12-31T01:15:09.601Z,99151.69
2017-12-31T01:17:37.140Z,99127.52
2017-12-31T01:20:05.095Z,99146.38
2017-12-31T01:22:32.601Z,99143.47
2017-12-31T01:25:01.575Z,99159.16
2017-12-31T01:27:29.345Z,99104.25
2017-12-31T01:29:58.566Z,99147.98
2017-12-31T01:32:26.114Z,99138.55
2017-12-31T01:34:53.678Z,99138.87
2017-12-31T01:37:21.934Z,99114.36
2017-12-31T01:39:49.438Z,99127.92
2017-12-31T01:42:17.757Z,99112.07
2017-12-31T01:44:45.548Z,99103.58
2017-12-31T01:47:14.149Z,99137.11
2017-12-31T01:49:42.149Z,99131.86
2017-12-31T01:52:10.570Z,99121.86
2017-12-31T01:54:38.158Z,99108.36
2017-12-31T01:57:05.679Z,99100.73
2017-12-31T01:59:33.230Z,99103.45
2017-12-31T02:02:00.983Z,99093.31
2017-12-31T02:04:28.542Z,99091.95
2017-12-31T02:06:59.960Z,99090.84
2017-12-31T02:09:27.722Z,99085.72
2017-12-31T02:11:55.625Z,99078.41
2017-12-31T02:14:23.154Z,99081.94
2017-12-31T02:16:50.943Z,99077.47
2017-12-31T02:19:18.749Z,99079.64
2017-12-31T02:21:46.279Z,99078.13
2017-12-31T02:24:14.222Z,99075.83
2017-12-31T02:26:42.856Z,99066.64
2017-12-31T02:29:10.418Z,99055.80
2017-12-31T02:31:38.173Z,99055.38
2017-12-31T02:34:05.834Z,99057.68
2017-12-31T02:36:33.346Z,99048.87
2017-12-31T02:39:01.427Z,99050.88
2017-12-31T02:41:28.940Z,99051.58
2017-12-31T02:43:56.497Z,99050.75
2017-12-31T02:46:24.011Z,99052.09
2017-12-31T02:48:51.598Z,99047.45
2017-12-31T02:51:19.112Z,99051.67
2017-12-31T02:53:46.638Z,99046.63
2017-12-31T02:56:14.158Z,99045.80
2017-12-31T02:58:41.991Z,99052.85
2017-12-31T03:01:09.888Z,99045.53
2017-12-31T03:03:37.459Z,99043.77
2017-12-31T03:06:05.185Z,99045.08
2017-12-31T03:08:33.123Z,99048.05
2017-12-31T03:11:00.603Z,99039.19
2017-12-31T03:13:28.358Z,99034.20
2017-12-31T03:15:55.866Z,99034.54
2017-12-31T03:18:23.802Z,99031.53
2017-12-31T03:20:51.987Z,99023.67
2017-12-31T03:23:19.506Z,99026.00
2017-12-31T03:25:47.292Z,99010.80
2017-12-31T03:28:14.782Z,99010.16
2017-12-31T03:30:42.286Z,98999.14
2017-12-31T03:33:09.826Z,99007.64
2017-12-31T03:35:37.643Z,99009.55
2017-12-31T03:38:05.230Z,99016.72
2017-12-31T03:40:32.971Z,99010.36
2017-12-31T03:43:00.903Z,99012.90
2017-12-31T03:45:28.632Z,99014.52
2017-12-31T03:47:56.182Z,99017.41
2017-12-31T03:50:23.662Z,99015.52
2017-12-31T03:52:51.426Z,99016.40
2017-12-31T03:55:18.965Z,98991.25
2017-12-31T03:57:46.748Z,99016.20
2017-12-31T04:00:14.259Z,99021.42
2017-12-31T04:02:41.816Z,99016.77
2017-12-31T04:05:09.990Z,99022.22
2017-12-31T04:07:37.585Z,99023.40
2017-12-31T04:10:05.123Z,99006.88
2017-12-31T04:12:32.602Z,99030.38
2017-12-31T04:15:00.304Z,99023.82
2017-12-31T04:17:27.763Z,99033.06
2017-12-31T04:19:55.535Z,99019.23
2017-12-31T04:22:23.043Z,99037.66
2017-12-31T04:24:51.854Z,99026.30
2017-12-31T04:27:19.431Z,99012.06
2017-12-31T04:29:46.970Z,99020.48
2017-12-31T04:32:14.494Z,99020.64
2017-12-31T04:34:42.042Z,99016.30
2017-12-31T04:37:10.262Z,99022.92
2017-12-31T04:39:37.790Z,99011.33
2017-12-31T04:42:05.543Z,99000.14
2017-12-31T04:44:33.070Z,99039.02
2017-12-31T04:47:00.622Z,99028.23
2017-12-31T04:49:28.155Z,99021.16
2017-12-31T04:51:55.678Z,99031.42
2017-12-31T04:54:23.554Z,99029.16
2017-12-31T04:56:51.091Z,99043.64
2017-12-31T04:59:18.610Z,99028.56
2017-12-31T05:01:46.562Z,99032.36
2017-12-31T05:04:14.311Z,99055.18
2017-12-31T05:06:42.201Z,99046.08
2017-12-31T05:09:10.070Z,99055.16
2017-12-31T05:11:39.103Z,99050.34
2017-12-31T05:14:07.522Z,99026.46
2017-12-31T05:16:35.002Z,99021.38
2017-12-31T05:19:02.497Z,99022.29
2017-12-31T05:21:30.012Z,99028.03
2017-12-31T05:23:57.835Z,99025.25
2017-12-31T05:26:25.338Z,99012.30
2017-12-31T05:28:52.878Z,99004.31
2017-12-31T05:31:20.390Z,99002.18
2017-12-31T05:33:48.100Z,99008.70
2017-12-31T05:36:16.501Z,99019.89
2017-12-31T05:38:44.095Z,99020.63
2017-12-31T05:41:11.614Z,99003.94
2017-12-31T05:43:39.131Z,99031.04
2017-12-31T05:46:07.482Z,99023.41
2017-12-31T05:48:35.035Z,99034.48
2017-12-31T05:51:02.834Z,99036.94
2017-12-31T05:53:31.590Z,99025.63
2017-12-31T05:55:59.347Z,99050.34
2017-12-31T05:58:26.878Z,99048.03
2017-12-31T06:00:54.394Z,99053.63
2017-12-31T06:03:21.854Z,99037.95
2017-12-31T06:05:50.519Z,99039.72
2017-12-31T06:08:18.543Z,99032.86
2017-12-31T06:10:46.434Z,99027.51
2017-12-31T06:13:13.916Z,99026.09
2017-12-31T06:15:41.394Z,99029.68
2017-12-31T06:18:09.149Z,99028.69
2017-12-31T06:20:37.352Z,99031.35
2017-12-31T06:23:05.328Z,99030.77
2017-12-31T06:25:32.903Z,99030.44
2017-12-31T06:28:00.434Z,99017.11
2017-12-31T06:30:28.427Z,99032.66
2017-12-31T06:32:56.284Z,99032.59
2017-12-31T06:35:24.885Z,99040.25
2017-12-31T06:37:52.418Z,99037.72
2017-12-31T06:40:20.142Z,99029.53
2017-12-31T06:42:48.026Z,99023.34
2017-12-31T06:45:15.559Z,99033.55
2017-12-31T06:47:43.054Z,99031.95
2017-12-31T06:50:10.778Z,99028.15
2017-12-31T06:52:38.321Z,99035.91
2017-12-31T06:55:05.798Z,99041.41
2017-12-31T06:57:33.296Z,99031.31
2017-12-31T07:00:00.742Z,99029.89
2017-12-31T07:02:28.223Z,99015.48
2017-12-31T07:04:55.685Z,99025.27
2017-12-31T07:07:23.163Z,99023.93
2017-12-31T07:09:50.614Z,99028.34
2017-12-31T07:12:18.082Z,99031.20
2017-12-31T07:14:45.547Z,99009.92
2017-12-31T07:17:13.014Z,99019.04
2017-12-31T07:19:40.494Z,99010.01
2017-12-31T07:22:07.962Z,99006.34
2017-12-31T07:24:35.418Z,99010.09
2017-12-31T07:27:02.957Z,98999.37
2017-12-31T07:29:30.416Z,99002.58
2017-12-31T07:31:57.900Z,99005.92
2017-12-31T07:34:25.360Z,99018.15
2017-12-31T07:36:52.837Z,99001.89
2017-12-31T07:39:20.311Z,99018.47
2017-12-31T07:41:47.785Z,99022.77
2017-12-31T07:44:15.273Z,99029.77
2017-12-31T07:46:42.750Z,99030.38
2017-12-31T07:49:10.224Z,99027.73
2017-12-31T07:51:37.682Z,99027.16
2017-12-31T07:54:05.150Z,99018.83
2017-12-31T07:56:32.606Z,99027.48
2017-12-31T07:59:00.099Z,99028.27
2017-12-31T08:01:27.546Z,99030.84
2017-12-31T08:03:55.026Z,99025.59
2017-12-31T08:06:22.486Z,99023.33
2017-12-31T08:08:49.977Z,99029.66
2017-12-31T08:11:17.434Z,99034.59
2017-12-31T08:13:45.758Z,99033.23
2017-12-31T08:16:13.218Z,99020.87
2017-12-31T08:18:40.745Z,99054.89
2017-12-31T08:21:08.176Z,99052.61
2017-12-31T08:23:35.652Z,99065.95
2017-12-31T08:26:03.112Z,99059.72
2017-12-31T08:28:30.593Z,99042.04
2017-12-31T08:30:58.051Z,99059.89
2017-12-31T08:33:25.522Z,99058.28
2017-12-31T08:35:52.970Z,99041.89
2017-12-31T08:38:20.434Z,99045.91
2017-12-31T08:40:47.887Z,99032.03
2017-12-31T08:43:15.371Z,99050.44
2017-12-31T08:45:42.848Z,99043.34
2017-12-31T08:48:10.322Z,99047.62
2017-12-31T08:50:37.784Z,99048.08
2017-12-31T08:53:05.254Z,99043.09
2017-12-31T08:55:32.714Z,99031.95
2017-12-31T08:58:00.183Z,99040.37
2017-12-31T09:00:27.641Z,99043.59
2017-12-31T09:02:55.142Z,99044.67
2017-12-31T09:05:22.602Z,99038.05
2017-12-31T09:07:50.118Z,99044.03
2017-12-31T09:10:17.595Z,99051.02
2017-12-31T09:12:45.050Z,99051.52
2017-12-31T09:15:12.523Z,99052.65
2017-12-31T09:17:40.004Z,99058.95
2017-12-31T09:20:07.478Z,99036.38
2017-12-31T09:22:34.952Z,99036.59
2017-12-31T09:25:02.430Z,99033.27
2017-12-31T09:27:29.884Z,99048.45
2017-12-31T09:29:57.349Z,99041.36
2017-12-31T09:32:24.802Z,99050.44
2017-12-31T09:34:52.279Z,99047.40
2017-12-31T09:37:19.743Z,99056.06
2017-12-31T09:39:47.234Z,99046.80
2017-12-31T09:42:14.691Z,99050.44
2017-12-31T09:44:42.163Z,99058.79
2017-12-31T09:47:11.375Z,99066.52
2017-12-31T09:49:38.850Z,99061.66
2017-12-31T09:52:06.302Z,99064.20
2017-12-31T09:54:33.775Z,99071.98
2017-12-31T09:57:01.275Z,99061.85
2017-12-31T09:59:28.755Z,99057.56
2017-12-31T10:01:56.214Z,99058.06
2017-12-31T10:04:23.688Z,99060.52
2017-12-31T10:06:51.143Z,99052.17
2017-12-31T10:09:18.614Z,99049.72
2017-12-31T10:11:46.080Z,99042.40
2017-12-31T10:14:13.566Z,99047.81
2017-12-31T10:16:41.014Z,99044.45
2017-12-31T10:19:08.478Z,99032.81
2017-12-31T10:21:35.926Z,99037.09
2017-12-31T10:24:03.472Z,99031.83
2017-12-31T10:26:30.898Z,99031.38
2017-12-31T10:28:58.386Z,99027.91
2017-12-31T10:31:25.852Z,99044.05
2017-12-31T10:33:53.359Z,99034.96
2017-12-31T10:36:20.839Z,99035.28
2017-12-31T10:38:48.299Z,99030.64
2017-12-31T10:41:15.781Z,99022.20
2017-12-31T10:43:43.227Z,99030.14
2017-12-31T10:46:10.710Z,99020.69
2017-12-31T10:48:38.155Z,99017.15
2017-12-31T10:51:05.627Z,99017.34
2017-12-31T10:53:33.074Z,99014.06
2017-12-31T10:56:00.550Z,99029.38
2017-12-31T10:58:28.006Z,99028.10
2017-12-31T11:01:00.426Z,99030.14
2017-12-31T11:03:27.880Z,99032.51
2017-12-31T11:05:55.360Z,99027.78
2017-12-31T11:08:22.814Z,99018.23
2017-12-31T11:10:50.282Z,99006.97
2017-12-31T11:13:17.738Z,99002.75
2017-12-31T11:15:45.214Z,99000.48
2017-12-31T11:18:13.198Z,98998.16
2017-12-31T11:20:41.388Z,98991.91
2017-12-31T11:23:08.834Z,98983.11
2017-12-31T11:25:36.315Z,98987.69
2017-12-31T11:28:04.618Z,98986.16
2017-12-31T11:30:32.104Z,98986.86
2017-12-31T11:33:01.551Z,98987.16
2017-12-31T11:35:29.051Z,98986.35
2017-12-31T11:37:56.511Z,98981.26
2017-12-31T11:40:23.982Z,98976.86
2017-12-31T11:42:51.434Z,98967.44
2017-12-31T11:45:18.906Z,98965.77
2017-12-31T11:47:46.359Z,98962.67
2017-12-31T11:50:13.830Z,98960.62
2017-12-31T11:52:41.278Z,98944.05
2017-12-31T11:55:08.730Z,98949.09
2017-12-31T11:57:36.202Z,98935.70
2017-12-31T12:00:03.654Z,98937.41
2017-12-31T12:02:31.154Z,98928.06
2017-12-31T12:04:58.610Z,98924.93
2017-12-31T12:07:26.090Z,98918.19
2017-12-31T12:09:53.559Z,98913.91
2017-12-31T12:12:21.040Z,98907.80
2017-12-31T12:14:49.012Z,98906.17
2017-12-31T12:17:16.943Z,98899.78
2017-12-31T12:19:44.390Z,98896.87
2017-12-31T12:22:11.870Z,98900.11
2017-12-31T12:24:39.329Z,98889.71
2017-12-31T12:27:06.800Z,98886.75
2017-12-31T12:29:34.264Z,98889.13
2017-12-31T12:32:01.739Z,98877.11
2017-12-31T12:34:29.194Z,98872.91
2017-12-31T12:36:56.671Z,98866.30
2017-12-31T12:39:24.126Z,98858.95
2017-12-31T12:41:51.614Z,98870.69
2017-12-31T12:44:23.635Z,98860.24
2017-12-31T12:46:51.119Z,98841.86
2017-12-31T12:49:18.575Z,98837.42
2017-12-31T12:51:46.048Z,98838.47
2017-12-31T12:54:13.501Z,98836.05
2017-12-31T12:56:41.818Z,98834.19
2017-12-31T12:59:09.274Z,98831.72
2017-12-31T13:01:36.787Z,98831.36
2017-12-31T13:04:04.258Z,98817.52
2017-12-31T13:06:31.757Z,98809.17
2017-12-31T13:09:00.055Z,98814.50
2017-12-31T13:11:27.540Z,98805.99
2017-12-31T13:13:55.006Z,98802.92
2017-12-31T13:16:22.482Z,98779.56
2017-12-31T13:18:50.270Z,98781.30
2017-12-31T13:21:17.826Z,98779.84
2017-12-31T13:23:45.315Z,98782.59
2017-12-31T13:26:12.786Z,98783.34
2017-12-31T13:28:40.282Z,98779.38
2017-12-31T13:31:07.742Z,98772.43
2017-12-31T13:33:35.217Z,98764.29
2017-12-31T13:36:03.146Z,98768.58
2017-12-31T13:38:36.658Z,98755.01
2017-12-31T13:41:04.151Z,98761.52
2017-12-31T13:43:31.635Z,98757.41
2017-12-31T13:45:59.102Z,98751.67
2017-12-31T13:48:26.606Z,98744.09
2017-12-31T13:50:54.063Z,98752.27
2017-12-31T13:53:21.542Z,98742.11
2017-12-31T13:55:48.990Z,98744.68
2017-12-31T13:58:16.471Z,98747.84
2017-12-31T14:00:43.954Z,98757.45
2017-12-31T14:03:11.462Z,98744.42
2017-12-31T14:05:38.921Z,98754.36
2017-12-31T14:08:06.435Z,98733.47
2017-12-31T14:10:33.911Z,98733.94
2017-12-31T14:13:04.714Z,98733.14
2017-12-31T14:15:32.171Z,98731.06
2017-12-31T14:17:59.642Z,98735.30
2017-12-31T14:20:27.690Z,98720.22
2017-12-31T14:22:55.174Z,98719.13
2017-12-31T14:25:22.623Z,98716.09
2017-12-31T14:27:53.151Z,98723.54
2017-12-31T14:30:20.596Z,98712.63
2017-12-31T14:32:48.063Z,98706.73
2017-12-31T14:35:15.517Z,98710.44
2017-12-31T14:37:43.001Z,98699.28
2017-12-31T14:40:10.580Z,98706.26
2017-12-31T14:42:38.071Z,98706.23
2017-12-31T14:45:05.535Z,98695.38
2017-12-31T14:47:33.021Z,98701.38
2017-12-31T14:50:00.482Z,98684.66
2017-12-31T14:52:27.934Z,98660.16
2017-12-31T14:54:55.411Z,98683.56
2017-12-31T14:57:22.871Z,98675.63
2017-12-31T14:59:53.503Z,98686.23
2017-12-31T15:02:20.958Z,98669.84
2017-12-31T15:04:48.475Z,98667.50
2017-12-31T15:07:15.926Z,98682.03
2017-12-31T15:09:43.403Z,98682.98
2017-12-31T15:12:10.855Z,98680.17
2017-12-31T15:14:38.322Z,98689.63
2017-12-31T15:17:05.778Z,98690.55
2017-12-31T15:19:33.250Z,98695.26
2017-12-31T15:24:33.420Z,98696.63
2017-12-31T15:27:00.872Z,98686.11
2017-12-31T15:29:28.354Z,98689.40
2017-12-31T15:31:55.807Z,98683.73
2017-12-31T15:34:23.279Z,98677.18
2017-12-31T15:36:50.732Z,98678.15
2017-12-31T15:39:18.208Z,98675.61
2017-12-31T15:44:18.763Z,98667.70
2017-12-31T15:46:46.223Z,98649.60
2017-12-31T15:49:13.700Z,98623.25
2017-12-31T15:51:41.165Z,98661.64
2017-12-31T15:54:08.647Z,98657.13
2017-12-31T15:56:36.098Z,98655.05
2017-12-31T15:59:03.586Z,98655.97
2017-12-31T16:01:31.039Z,98654.27
2017-12-31T16:03:58.515Z,98653.65
2017-12-31T16:06:25.967Z,98645.33
2017-12-31T16:08:53.467Z,98649.92
2017-12-31T16:11:20.926Z,98644.61
2017-12-31T16:13:48.410Z,98645.22
2017-12-31T16:16:15.870Z,98649.19
2017-12-31T16:18:43.322Z,98644.83
2017-12-31T16:21:10.799Z,98619.36
2017-12-31T16:23:38.262Z,98621.59
2017-12-31T16:26:05.753Z,98625.30
2017-12-31T16:28:33.218Z,98632.98
2017-12-31T16:31:00.706Z,98621.14
2017-12-31T16:33:28.166Z,98630.81
2017-12-31T16:35:55.655Z,98623.80
2017-12-31T16:38:23.110Z,98624.36
2017-12-31T16:40:50.602Z,98629.00
2017-12-31T16:43:18.058Z,98610.02
2017-12-31T16:45:45.542Z,98610.77
2017-12-31T16:48:13.006Z,98607.98
2017-12-31T16:50:40.485Z,98608.25
2017-12-31T16:53:07.951Z,98588.16
2017-12-31T16:55:35.437Z,98579.55
2017-12-31T16:58:02.916Z,98579.55
2017-12-31T17:00:30.394Z,98570.97
2017-12-31T17:02:57.849Z,98564.88
2017-12-31T17:05:25.318Z,98562.64
2017-12-31T17:07:52.786Z,98559.94
2017-12-31T17:10:20.254Z,98545.32
2017-12-31T17:12:47.706Z,98549.59
2017-12-31T17:15:15.186Z,98541.38
2017-12-31T17:17:42.647Z,98535.00
2017-12-31T17:20:10.118Z,98535.80
2017-12-31T17:22:37.570Z,98529.05
2017-12-31T17:25:05.050Z,98523.32
2017-12-31T17:27:32.516Z,98530.62
2017-12-31T17:29:59.992Z,98523.84
2017-12-31T17:32:27.455Z,98530.41
2017-12-31T17:34:54.943Z,98521.70
2017-12-31T17:37:22.403Z,98513.25
2017-12-31T17:39:49.851Z,98508.03
2017-12-31T17:42:17.327Z,98496.74
2017-12-31T17:44:44.792Z,98490.69
2017-12-31T17:47:12.278Z,98490.00
2017-12-31T17:49:39.730Z,98489.09
2017-12-31T17:52:07.203Z,98477.23
2017-12-31T17:54:34.658Z,98493.83
2017-12-31T17:57:02.143Z,98488.62
2017-12-31T17:59:29.608Z,98488.02
2017-12-31T18:01:57.078Z,98489.05
2017-12-31T18:04:24.526Z,98472.73
2017-12-31T18:06:52.003Z,98485.07
2017-12-31T18:09:19.458Z,98489.27
2017-12-31T18:11:46.926Z,98480.52
2017-12-31T18:14:14.383Z,98476.45
2017-12-31T18:16:41.863Z,98475.97
2017-12-31T18:19:09.326Z,98453.52
2017-12-31T18:21:36.803Z,98443.02
2017-12-31T18:24:04.256Z,98452.97
2017-12-31T18:26:31.727Z,98439.08
2017-12-31T18:28:59.186Z,98437.92
2017-12-31T18:31:26.699Z,98424.16
2017-12-31T18:33:54.219Z,98430.75
2017-12-31T18:36:21.675Z,98441.00
2017-12-31T18:38:49.163Z,98427.70
2017-12-31T18:41:16.710Z,98425.30
2017-12-31T18:43:44.162Z,98415.83
2017-12-31T18:46:11.635Z,98417.41
2017-12-31T18:48:39.099Z,98414.61
2017-12-31T18:51:06.587Z,98406.64
2017-12-31T18:53:34.056Z,98415.97
2017-12-31T18:56:01.559Z,98419.73
2017-12-31T18:58:29.021Z,98425.09
2017-12-31T19:00:56.472Z,98425.78
2017-12-31T19:03:23.946Z,98427.57
2017-12-31T19:05:51.423Z,98422.04
2017-12-31T19:08:18.906Z,98434.72
2017-12-31T19:10:46.375Z,98440.31
2017-12-31T19:13:13.879Z,98432.95
2017-12-31T19:15:41.340Z,98436.50
2017-12-31T19:18:08.823Z,98430.81
2017-12-31T19:20:36.287Z,98428.23
2017-12-31T19:23:03.807Z,98416.11
2017-12-31T19:25:31.273Z,98427.75
2017-12-31T19:27:58.755Z,98424.68
2017-12-31T19:30:26.233Z,98403.40
2017-12-31T19:32:53.710Z,98420.39
2017-12-31T19:35:21.202Z,98430.80
2017-12-31T19:37:48.687Z,98431.56
2017-12-31T19:40:16.155Z,98423.61
2017-12-31T19:42:43.810Z,98432.72
2017-12-31T19:45:12.257Z,98426.87
2017-12-31T19:47:39.744Z,98429.62
2017-12-31T19:50:07.215Z,98430.37
2017-12-31T19:52:34.702Z,98423.02
2017-12-31T19:55:02.179Z,98411.86
2017-12-31T19:57:29.656Z,98412.39
2017-12-31T19:59:57.121Z,98425.88
2017-12-31T20:02:24.602Z,98428.98
2017-12-31T20:04:52.063Z,98423.98
2017-12-31T20:07:19.543Z,98421.24
2017-12-31T20:09:46.999Z,98435.67
2017-12-31T20:12:14.483Z,98440.14
2017-12-31T20:14:41.939Z,98434.23
2017-12-31T20:17:09.442Z,98438.76
2017-12-31T20:19:36.938Z,98449.25
2017-12-31T20:22:04.415Z,98434.39
2017-12-31T20:24:31.898Z,98464.38
2017-12-31T20:26:59.354Z,98477.30
2017-12-31T20:29:26.823Z,98470.58
2017-12-31T20:31:54.285Z,98475.81
2017-12-31T20:34:21.767Z,98487.25
2017-12-31T20:36:49.290Z,98495.96
2017-12-31T20:39:16.743Z,98503.22
2017-12-31T20:41:44.219Z,98502.82
2017-12-31T20:44:11.723Z,98507.08
2017-12-31T20:46:39.183Z,98510.97
2017-12-31T20:49:06.684Z,98522.30
2017-12-31T20:51:34.146Z,98503.33
2017-12-31T20:54:01.614Z,98512.73
2017-12-31T20:56:29.066Z,98516.63
2017-12-31T20:58:56.537Z,98516.45
2017-12-31T21:01:23.994Z,98517.25
2017-12-31T21:03:51.463Z,98516.48
2017-12-31T21:06:18.910Z,98514.89
2017-12-31T21:08:46.387Z,98524.03
2017-12-31T21:11:13.850Z,98528.16
2017-12-31T21:13:41.322Z,98533.55
2017-12-31T21:16:08.771Z,98526.09
2017-12-31T21:18:36.634Z,98511.25
2017-12-31T21:21:04.086Z,98525.89
2017-12-31T21:23:31.557Z,98518.91
2017-12-31T21:25:59.014Z,98522.89
2017-12-31T21:28:26.487Z,98514.47
2017-12-31T21:30:53.950Z,98510.59
2017-12-31T21:33:21.418Z,98530.36
2017-12-31T21:35:48.884Z,98528.70
2017-12-31T21:38:16.383Z,98519.95
2017-12-31T21:40:43.841Z,98524.84
2017-12-31T21:43:11.294Z,98518.67
2017-12-31T21:45:38.775Z,98529.35
2017-12-31T21:48:06.236Z,98522.47
2017-12-31T21:50:33.711Z,98522.41
2017-12-31T21:53:01.154Z,98524.16
2017-12-31T21:55:28.827Z,98523.25
2017-12-31T21:57:56.274Z,98529.35
2017-12-31T22:03:06.876Z,98535.42
2017-12-31T22:08:44.478Z,98551.22
2017-12-31T22:13:47.388Z,98543.95
2017-12-31T22:16:14.935Z,98540.25
2017-12-31T22:18:42.400Z,98532.59
2017-12-31T22:21:09.878Z,98539.23
2017-12-31T22:23:37.578Z,98537.25
2017-12-31T22:29:07.760Z,98562.39
2017-12-31T22:31:35.215Z,98567.66
2017-12-31T22:34:02.708Z,98569.35
2017-12-31T22:36:39.330Z,98568.74
2017-12-31T22:39:16.867Z,98574.81
2017-12-31T22:41:46.062Z,98570.51
2017-12-31T22:44:14.852Z,98585.46
2017-12-31T22:46:42.354Z,98582.61
2017-12-31T22:49:09.806Z,98545.76
2017-12-31T22:51:37.287Z,98564.64
2017-12-31T22:54:04.764Z,98578.91
2017-12-31T22:56:32.263Z,98574.95
2017-12-31T22:58:59.719Z,98581.25
2017-12-31T23:01:27.195Z,98563.14
2017-12-31T23:03:54.651Z,98577.74
2017-12-31T23:06:22.134Z,98580.00
2017-12-31T23:08:49.599Z,98593.14
2017-12-31T23:11:17.116Z,98596.86
2017-12-31T23:13:44.566Z,98591.41
2017-12-31T23:16:12.051Z,98608.20
2017-12-31T23:18:39.518Z,98602.68
2017-12-31T23:21:06.991Z,98604.58
2017-12-31T23:23:34.467Z,98599.08
2017-12-31T23:26:01.946Z,98599.78
2017-12-31T23:28:29.411Z,98623.80
2017-12-31T23:30:56.886Z,98619.86
2017-12-31T23:33:24.347Z,98634.77
2017-12-31T23:35:51.823Z,98631.25
2017-12-31T23:38:19.270Z,98636.45
2017-12-31T23:40:46.815Z,98641.95
2017-12-31T23:43:14.270Z,98627.02
2017-12-31T23:45:41.746Z,98676.09
2017-12-31T23:48:09.195Z,98671.85
2017-12-31T23:50:36.668Z,98658.74
2017-12-31T23:53:04.138Z,98697.19
2017-12-31T23:55:31.620Z,98691.15
2017-12-31T23:57:59.089Z,98686.31
